Time;durP1;ratioP1;P1;durP2;ratioP2;P2;SDS_P1;SDS_P2;PMS_P1;PMS_P2;Temp;Humidity;BMP_temperature;BMP_pressure;BME280_temperature;BME280_humidity;BME280_pressure;Samples;Min_cycle;Max_cycle;Signal;HPM_P1;HPM_P2
2023/09/07 00:03:51;;;;;;;8.73;4.15;;;25.30;99.90;;;;;;10063900;28;20066;-72
2023/09/07 00:08:43;;;;;;;8.48;3.80;;;25.20;99.90;;;;;;10054947;28;20037;-71
2023/09/07 00:13:34;;;;;;;8.10;4.10;;;25.10;99.90;;;;;;10054921;28;20017;-73
2023/09/07 00:18:24;;;;;;;10.30;4.18;;;25.00;99.90;;;;;;10055070;28;20037;-73
2023/09/07 00:23:16;;;;;;;8.48;3.80;;;25.10;99.90;;;;;;10055741;28;20025;-72
2023/09/07 00:28:10;;;;;;;4.95;2.92;;;25.10;99.90;;;;;;10056031;28;20103;-73
2023/09/07 00:33:00;;;;;;;4.75;3.03;;;25.00;99.90;;;;;;10052096;28;20407;-72
2023/09/07 00:37:52;;;;;;;6.03;3.03;;;24.90;99.90;;;;;;10042011;28;20120;-72
2023/09/07 00:42:42;;;;;;;3.80;2.60;;;24.90;99.90;;;;;;10057437;28;20361;-73
2023/09/07 00:47:36;;;;;;;5.13;2.80;;;24.90;99.90;;;;;;10054358;28;20041;-73
2023/09/07 00:52:27;;;;;;;2.57;2.37;;;24.80;99.90;;;;;;10054347;28;20041;-72
2023/09/07 00:57:18;;;;;;;3.85;2.83;;;24.80;99.90;;;;;;10054907;28;20487;-71
2023/09/07 01:02:08;;;;;;;3.30;2.65;;;24.80;99.90;;;;;;10053451;28;20127;-72
2023/09/07 01:07:29;;;;;;;4.43;2.70;;;24.70;99.90;;;;;;10060333;28;20052;-71
2023/09/07 01:12:26;;;;;;;2.47;2.17;;;24.50;99.90;;;;;;10061975;28;20073;-72
2023/09/07 01:17:21;;;;;;;3.05;2.55;;;24.50;99.90;;;;;;10060489;28;20030;-73
2023/09/07 01:22:12;;;;;;;3.17;2.65;;;24.50;99.90;;;;;;10060660;28;20113;-73
2023/09/07 01:27:04;;;;;;;5.05;3.13;;;24.40;99.90;;;;;;10057429;28;20452;-72
2023/09/07 01:31:56;;;;;;;5.55;3.17;;;24.30;99.90;;;;;;10050101;28;20022;-72
2023/09/07 01:36:47;;;;;;;6.43;2.97;;;24.20;99.90;;;;;;10044931;28;20371;-72
2023/09/07 01:41:37;;;;;;;6.18;2.95;;;24.20;99.90;;;;;;10054589;28;20033;-72
2023/09/07 01:46:28;;;;;;;3.85;2.70;;;24.20;99.90;;;;;;10060505;28;20092;-73
2023/09/07 01:51:19;;;;;;;4.50;3.25;;;24.10;99.90;;;;;;10054414;28;20561;-74
2023/09/07 01:56:10;;;;;;;4.95;2.92;;;24.10;99.90;;;;;;10055497;28;20033;-72
2023/09/07 02:01:00;;;;;;;6.43;3.10;;;23.90;99.90;;;;;;10058173;28;20545;-73
2023/09/07 02:05:53;;;;;;;5.32;2.97;;;23.90;99.90;;;;;;10058443;28;20029;-72
2023/09/07 02:10:44;;;;;;;4.38;3.38;;;23.70;99.90;;;;;;10059332;28;20029;-73
2023/09/07 02:15:38;;;;;;;5.20;3.35;;;23.70;99.90;;;;;;10057637;28;20029;-73
2023/09/07 02:20:28;;;;;;;4.03;2.55;;;23.70;99.90;;;;;;10059215;28;20033;-72
2023/09/07 02:25:19;;;;;;;3.97;2.80;;;23.60;99.90;;;;;;10058773;28;20030;-73
2023/09/07 02:30:10;;;;;;;4.20;2.50;;;23.60;99.90;;;;;;10057039;28;20057;-73
2023/09/07 02:35:01;;;;;;;5.30;3.35;;;23.60;99.90;;;;;;10051733;28;20033;-73
2023/09/07 02:39:51;;;;;;;4.03;3.15;;;23.50;99.90;;;;;;10055908;28;20659;-73
2023/09/07 02:44:42;;;;;;;5.28;2.90;;;23.40;99.90;;;;;;10057898;28;20018;-73
2023/09/07 02:49:33;;;;;;;5.75;2.78;;;23.40;99.90;;;;;;10055589;28;20392;-72
2023/09/07 02:54:23;;;;;;;4.10;3.08;;;23.30;99.90;;;;;;10057334;28;20021;-72
2023/09/07 02:59:14;;;;;;;6.90;2.95;;;23.30;99.90;;;;;;10057541;28;20029;-72
2023/09/07 03:04:05;;;;;;;3.20;2.78;;;23.10;99.90;;;;;;10056298;28;20041;-73
2023/09/07 03:08:56;;;;;;;4.53;2.70;;;23.00;99.90;;;;;;10054352;28;20073;-73
2023/09/07 03:13:47;;;;;;;4.03;2.75;;;23.00;99.90;;;;;;10055324;28;20013;-72
2023/09/07 03:18:38;;;;;;;4.13;3.08;;;23.10;99.90;;;;;;10056427;28;20034;-74
2023/09/07 03:23:30;;;;;;;5.82;2.85;;;23.00;99.90;;;;;;10051823;28;20021;-73
2023/09/07 03:28:21;;;;;;;4.60;2.97;;;22.90;99.90;;;;;;10036442;28;20296;-71
2023/09/07 03:33:11;;;;;;;3.97;3.03;;;22.90;99.90;;;;;;10051762;28;20277;-72
2023/09/07 03:38:02;;;;;;;4.32;2.85;;;22.80;99.90;;;;;;10043374;28;20025;-72
2023/09/07 03:42:53;;;;;;;5.25;3.15;;;22.70;99.90;;;;;;10044423;28;20025;-71
2023/09/07 03:47:44;;;;;;;5.00;3.42;;;22.70;99.90;;;;;;10055430;28;20510;-71
2023/09/07 03:52:35;;;;;;;4.72;3.17;;;22.70;99.90;;;;;;10055393;28;20317;-72
2023/09/07 03:57:26;;;;;;;4.70;3.38;;;22.70;99.90;;;;;;10052869;28;20117;-71
2023/09/07 04:02:17;;;;;;;3.03;2.30;;;22.70;99.90;;;;;;10054633;28;20038;-72
2023/09/07 04:07:08;;;;;;;4.32;3.30;;;22.60;99.90;;;;;;10055422;28;20033;-71
2023/09/07 04:11:58;;;;;;;4.20;3.20;;;22.50;99.90;;;;;;10054788;28;20114;-71
2023/09/07 04:16:50;;;;;;;5.72;2.88;;;22.40;99.90;;;;;;10054356;28;20034;-72
2023/09/07 04:21:41;;;;;;;5.07;3.42;;;22.20;99.90;;;;;;10054850;28;20292;-72
2023/09/07 04:26:33;;;;;;;3.53;2.90;;;22.30;99.90;;;;;;10054829;28;20041;-72
2023/09/07 04:31:27;;;;;;;3.75;3.03;;;22.20;99.90;;;;;;10054736;28;20040;-72
2023/09/07 04:36:18;;;;;;;6.53;3.67;;;22.20;99.90;;;;;;10038884;28;20379;-73
2023/09/07 04:41:13;;;;;;;5.93;3.33;;;22.10;99.90;;;;;;10058684;28;20128;-74
2023/09/07 04:46:04;;;;;;;5.05;3.33;;;22.00;99.90;;;;;;10061547;28;20022;-73
2023/09/07 04:51:05;;;;;;;6.25;3.20;;;22.00;99.90;;;;;;10062595;28;20049;-74
2023/09/07 04:56:03;;;;;;;4.80;3.33;;;22.00;99.90;;;;;;10067822;28;20025;-72
2023/09/07 05:00:54;;;;;;;6.25;3.08;;;22.00;99.90;;;;;;10067485;28;20030;-72
2023/09/07 05:05:45;;;;;;;6.85;3.22;;;22.00;99.90;;;;;;10077591;28;20037;-72
2023/09/07 05:10:52;;;;;;;4.13;2.80;;;21.80;99.90;;;;;;10089692;28;20176;-71
2023/09/07 05:15:53;;;;;;;5.72;3.28;;;21.90;99.90;;;;;;10081898;28;20030;-71
2023/09/07 05:20:51;;;;;;;4.93;3.83;;;21.80;99.90;;;;;;10068004;28;20037;-72
2023/09/07 05:25:51;;;;;;;7.72;4.10;;;21.70;99.90;;;;;;10075380;28;20017;-72
2023/09/07 05:30:42;;;;;;;3.88;3.30;;;21.60;99.90;;;;;;10083519;28;20553;-72
2023/09/07 05:35:34;;;;;;;5.78;3.50;;;21.70;99.90;;;;;;10079030;28;20034;-71
2023/09/07 05:40:24;;;;;;;4.45;2.83;;;21.60;99.90;;;;;;10077298;28;20036;-72
2023/09/07 05:45:15;;;;;;;6.25;3.75;;;21.50;99.90;;;;;;10061095;28;20041;-73
2023/09/07 05:50:06;;;;;;;7.43;2.80;;;21.60;99.90;;;;;;10060047;28;20474;-73
2023/09/07 05:54:57;;;;;;;4.43;3.13;;;21.50;99.90;;;;;;10060735;28;20116;-72
2023/09/07 05:59:48;;;;;;;4.60;3.28;;;21.50;99.90;;;;;;10059269;28;20456;-72
2023/09/07 06:04:38;;;;;;;4.28;3.63;;;21.50;99.90;;;;;;10058498;28;20049;-72
2023/09/07 06:09:29;;;;;;;5.72;3.72;;;21.50;99.90;;;;;;10059475;28;20026;-72
2023/09/07 06:14:20;;;;;;;5.88;3.47;;;21.60;99.90;;;;;;10059547;28;20026;-73
2023/09/07 06:19:22;;;;;;;4.95;2.65;;;21.60;99.90;;;;;;10063727;28;20438;-72
2023/09/07 06:24:14;;;;;;;4.85;3.25;;;21.60;99.90;;;;;;10060888;28;20029;-73
2023/09/07 06:29:05;;;;;;;5.82;3.95;;;21.40;99.90;;;;;;10040210;28;20366;-72
2023/09/07 06:33:55;;;;;;;5.60;3.47;;;21.50;99.90;;;;;;10052039;28;20665;-72
2023/09/07 06:38:46;;;;;;;6.32;3.92;;;21.60;99.90;;;;;;10048572;28;20053;-73
2023/09/07 06:43:37;;;;;;;7.15;3.90;;;21.50;99.90;;;;;;10058946;28;20033;-73
2023/09/07 06:48:28;;;;;;;5.28;3.70;;;21.50;99.90;;;;;;10058846;28;20061;-73
2023/09/07 06:53:19;;;;;;;5.95;3.67;;;21.50;99.90;;;;;;10058066;28;20092;-72
2023/09/07 06:58:10;;;;;;;6.80;3.00;;;21.60;99.90;;;;;;10057280;28;20090;-73
2023/09/07 07:03:04;;;;;;;6.72;3.75;;;21.60;99.90;;;;;;10054352;22;20543;-82
2023/09/07 07:07:54;;;;;;;6.10;3.13;;;21.60;99.90;;;;;;10016864;28;20120;-82
2023/09/07 07:12:45;;;;;;;8.25;4.32;;;21.70;99.90;;;;;;10020513;28;20208;-82
2023/09/07 07:17:38;;;;;;;9.85;5.50;;;21.80;99.90;;;;;;10019343;28;20026;-80
2023/09/07 07:22:29;;;;;;;8.73;4.13;;;21.90;99.90;;;;;;10019706;28;20025;-80
2023/09/07 07:27:20;;;;;;;6.28;3.33;;;22.00;99.90;;;;;;10020592;28;20021;-81
2023/09/07 07:32:11;;;;;;;7.57;3.53;;;21.90;99.90;;;;;;10019627;28;20455;-80
2023/09/07 07:37:01;;;;;;;6.90;3.58;;;21.90;99.90;;;;;;10023747;28;20053;-80
2023/09/07 07:41:52;;;;;;;6.50;3.22;;;21.80;99.90;;;;;;10017870;28;20452;-79
2023/09/07 07:46:44;;;;;;;4.82;2.95;;;21.90;99.90;;;;;;10017936;28;20243;-80
2023/09/07 07:51:35;;;;;;;5.28;3.30;;;22.00;99.90;;;;;;10015693;28;20503;-80
2023/09/07 07:56:25;;;;;;;5.57;2.90;;;22.10;99.90;;;;;;10010705;28;20021;-82
2023/09/07 08:01:17;;;;;;;4.35;2.70;;;22.20;99.90;;;;;;10012708;28;20045;-82
2023/09/07 08:06:11;;;;;;;5.43;3.15;;;22.20;99.90;;;;;;10016721;28;20443;-81
2023/09/07 08:11:05;;;;;;;4.82;2.45;;;22.20;99.90;;;;;;10045365;28;20065;-79
2023/09/07 08:15:56;;;;;;;5.77;4.20;;;22.30;99.90;;;;;;10016802;28;20675;-80
2023/09/07 08:20:47;;;;;;;6.75;3.08;;;22.30;99.90;;;;;;10026529;28;20284;-81
2023/09/07 08:25:39;;;;;;;7.05;3.05;;;22.40;99.90;;;;;;10016844;28;20026;-81
2023/09/07 08:30:30;;;;;;;6.95;4.20;;;22.50;99.90;;;;;;10016642;28;20081;-80
2023/09/07 08:35:27;;;;;;;9.10;4.57;;;22.50;99.90;;;;;;10015733;28;20512;-80
2023/09/07 08:40:19;;;;;;;6.18;3.08;;;22.60;99.90;;;;;;10016591;28;20611;-77
2023/09/07 08:45:13;;;;;;;6.75;3.50;;;22.70;99.90;;;;;;10019216;28;20017;-81
2023/09/07 08:50:07;;;;;;;5.57;3.08;;;22.60;99.90;;;;;;10018204;28;20037;-78
2023/09/07 08:55:00;;;;;;;3.93;2.87;;;22.70;99.90;;;;;;10018188;28;20050;-79
2023/09/07 08:59:51;;;;;;;4.82;2.88;;;22.80;99.90;;;;;;10018938;28;20279;-80
2023/09/07 09:04:42;;;;;;;3.95;3.22;;;22.90;99.90;;;;;;10024700;28;20057;-79
2023/09/07 09:09:36;;;;;;;6.05;2.65;;;22.90;99.90;;;;;;10035954;28;20034;-81
2023/09/07 09:14:30;;;;;;;4.45;3.15;;;23.10;99.90;;;;;;10016263;28;20022;-81
2023/09/07 09:19:33;;;;;;;5.85;3.28;;;23.10;99.90;;;;;;10016842;28;20045;-79
2023/09/07 09:24:25;;;;;;;5.50;3.25;;;23.00;99.90;;;;;;10017218;28;20551;-79
2023/09/07 09:29:15;;;;;;;4.65;2.92;;;23.00;99.90;;;;;;10028335;28;20036;-81
2023/09/07 09:34:06;;;;;;;5.47;3.30;;;23.10;99.90;;;;;;10023159;28;20365;-81
2023/09/07 09:38:57;;;;;;;8.20;3.33;;;23.10;99.90;;;;;;10021011;28;20223;-81
2023/09/07 09:43:51;;;;;;;6.57;4.32;;;23.20;99.90;;;;;;10022228;28;20092;-81
2023/09/07 09:48:42;;;;;;;7.13;3.58;;;23.30;99.90;;;;;;10021587;28;20118;-79
2023/09/07 09:53:33;;;;;;;4.35;2.95;;;23.30;99.90;;;;;;10022798;28;20161;-80
2023/09/07 09:58:24;;;;;;;5.28;3.17;;;23.40;99.90;;;;;;10022150;28;20112;-79
2023/09/07 10:03:34;;;;;;;4.93;3.28;;;23.40;99.90;;;;;;10022829;28;20053;-79
2023/09/07 10:08:29;;;;;;;4.65;2.80;;;23.50;99.90;;;;;;10030172;28;20053;-80
2023/09/07 10:13:30;;;;;;;3.28;2.40;;;23.50;99.90;;;;;;10020861;28;20034;-81
2023/09/07 10:18:32;;;;;;;3.47;2.83;;;23.50;99.90;;;;;;10020483;28;20114;-79
2023/09/07 10:23:36;;;;;;;3.70;2.72;;;23.50;99.90;;;;;;10021221;28;20025;-80
2023/09/07 10:28:27;;;;;;;2.97;2.67;;;23.60;99.90;;;;;;10014288;28;20061;-79
2023/09/07 10:33:21;;;;;;;12.55;3.25;;;23.60;99.90;;;;;;10016720;28;20399;-80
2023/09/07 10:38:15;;;;;;;3.22;2.53;;;23.70;99.90;;;;;;10016109;28;20014;-81
2023/09/07 10:43:05;;;;;;;5.32;3.17;;;23.70;99.90;;;;;;10019944;28;20037;-80
2023/09/07 10:47:56;;;;;;;4.55;3.38;;;23.70;99.90;;;;;;10019499;28;20419;-79
2023/09/07 10:52:47;;;;;;;3.60;2.60;;;23.80;99.90;;;;;;10039502;28;20017;-80
2023/09/07 10:57:46;;;;;;;4.00;2.78;;;23.80;99.90;;;;;;10018714;28;20026;-77
2023/09/07 11:02:38;;;;;;;5.82;2.70;;;23.90;99.90;;;;;;10021345;28;20049;-80
2023/09/07 11:07:28;;;;;;;4.63;3.10;;;23.90;99.90;;;;;;10019056;28;20038;-79
2023/09/07 11:12:23;;;;;;;3.58;3.20;;;24.00;99.90;;;;;;10019254;28;20022;-80
2023/09/07 11:17:15;;;;;;;4.22;2.67;;;24.00;99.90;;;;;;10018886;28;20033;-79
2023/09/07 11:22:11;;;;;;;5.32;3.75;;;24.00;99.90;;;;;;10018742;28;20030;-80
2023/09/07 11:27:03;;;;;;;3.30;2.80;;;24.10;99.90;;;;;;10018080;28;20042;-78
2023/09/07 11:31:54;;;;;;;5.32;2.75;;;24.10;99.90;;;;;;10018353;28;20038;-79
2023/09/07 11:36:44;;;;;;;4.18;3.10;;;24.20;99.90;;;;;;10005474;28;20030;-81
2023/09/07 11:41:35;;;;;;;4.10;3.10;;;24.20;99.90;;;;;;10017498;28;20029;-75
2023/09/07 11:46:25;;;;;;;5.97;3.45;;;24.30;99.90;;;;;;10017126;28;20038;-79
2023/09/07 11:51:16;;;;;;;4.60;3.30;;;24.30;99.90;;;;;;10025729;28;20387;-80
2023/09/07 11:56:07;;;;;;;5.03;3.33;;;24.30;99.90;;;;;;10016985;28;20049;-81
2023/09/07 12:00:58;;;;;;;5.22;3.42;;;24.40;99.90;;;;;;10018312;28;20022;-81
2023/09/07 12:05:49;;;;;;;5.03;3.38;;;24.40;99.90;;;;;;10017339;28;20041;-82
2023/09/07 12:10:39;;;;;;;6.90;4.18;;;24.50;99.90;;;;;;10017575;28;20059;-81
2023/09/07 12:15:30;;;;;;;3.28;2.45;;;24.60;99.90;;;;;;10018190;28;20026;-80
2023/09/07 12:20:21;;;;;;;4.38;3.10;;;24.80;99.90;;;;;;10016192;28;20084;-79
2023/09/07 12:25:12;;;;;;;3.22;2.58;;;24.90;99.90;;;;;;10016922;28;20054;-81
2023/09/07 12:30:08;;;;;;;4.63;2.70;;;25.00;99.90;;;;;;10016893;28;20077;-75
2023/09/07 12:34:59;;;;;;;3.70;2.92;;;25.10;99.90;;;;;;10007891;28;20468;-80
2023/09/07 12:39:53;;;;;;;4.70;3.00;;;25.20;99.90;;;;;;10030891;28;20060;-76
2023/09/07 12:44:44;;;;;;;10.53;3.37;;;25.30;99.90;;;;;;10016472;28;20037;-80
2023/09/07 12:49:35;;;;;;;4.85;2.80;;;25.40;99.90;;;;;;10016083;28;20042;-80
2023/09/07 12:54:25;;;;;;;3.05;2.45;;;25.70;99.90;;;;;;10026030;28;20026;-72
2023/09/07 12:59:16;;;;;;;3.80;2.65;;;25.80;99.90;;;;;;10016266;28;20045;-78
2023/09/07 13:04:07;;;;;;;4.53;3.03;;;26.00;99.90;;;;;;10038807;28;20284;-81
2023/09/07 13:08:58;;;;;;;7.05;3.33;;;26.00;99.90;;;;;;10023780;28;20045;-77
2023/09/07 13:13:48;;;;;;;5.40;3.40;;;26.00;99.90;;;;;;10030939;28;20149;-78
2023/09/07 13:18:39;;;;;;;4.35;3.08;;;26.20;99.90;;;;;;10023149;28;20034;-77
2023/09/07 13:23:31;;;;;;;3.05;2.67;;;26.30;99.90;;;;;;10022950;28;20022;-82
2023/09/07 13:28:22;;;;;;;5.97;3.17;;;26.50;99.90;;;;;;10015302;28;20046;-78
2023/09/07 13:33:12;;;;;;;5.18;3.42;;;26.60;99.90;;;;;;10014641;28;20033;-79
2023/09/07 13:38:06;;;;;;;4.15;2.97;;;26.80;99.90;;;;;;10018990;28;20048;-81
2023/09/07 13:42:57;;;;;;;3.50;3.10;;;26.90;99.90;;;;;;10022645;28;20026;-81
2023/09/07 13:47:47;;;;;;;2.97;2.60;;;27.10;99.90;;;;;;10022535;28;20109;-81
2023/09/07 13:52:39;;;;;;;4.60;3.20;;;27.30;99.90;;;;;;10024674;28;20022;-81
2023/09/07 13:57:29;;;;;;;5.00;3.25;;;27.60;99.90;;;;;;10021981;28;20657;-81
2023/09/07 14:02:20;;;;;;;4.18;3.10;;;27.70;99.90;;;;;;10021962;28;20073;-78
2023/09/07 14:07:12;;;;;;;5.70;3.40;;;27.80;99.90;;;;;;10022033;28;21416;-77
2023/09/07 14:12:03;;;;;;;6.38;2.92;;;28.00;99.90;;;;;;10021299;28;20026;-80
2023/09/07 14:16:56;;;;;;;4.72;2.97;;;28.30;99.90;;;;;;10021081;28;20373;-81
2023/09/07 14:21:47;;;;;;;5.30;2.85;;;28.40;99.90;;;;;;10019416;28;20030;-75
2023/09/07 14:26:37;;;;;;;4.25;2.90;;;28.60;99.90;;;;;;10020926;28;20109;-79
2023/09/07 14:31:28;;;;;;;4.70;3.28;;;28.70;99.90;;;;;;10020315;28;20040;-82
2023/09/07 14:36:19;;;;;;;5.60;3.40;;;28.90;99.90;;;;;;10014079;28;20014;-80
2023/09/07 14:41:17;;;;;;;6.38;3.53;;;29.10;99.90;;;;;;10019712;28;20022;-81
2023/09/07 14:46:08;;;;;;;4.25;2.97;;;29.20;99.90;;;;;;10025252;28;20052;-82
2023/09/07 14:50:59;;;;;;;3.63;2.50;;;29.50;99.90;;;;;;10019397;28;20125;-80
2023/09/07 14:55:49;;;;;;;3.30;2.88;;;29.70;99.90;;;;;;10019080;28;20459;-81
2023/09/07 15:00:40;;;;;;;3.33;2.97;;;29.80;99.90;;;;;;10018975;28;20060;-81
2023/09/07 15:05:30;;;;;;;5.55;3.67;;;30.00;99.80;;;;;;10019606;28;20401;-80
2023/09/07 15:10:21;;;;;;;4.32;3.25;;;30.20;99.70;;;;;;10019007;28;20042;-80
2023/09/07 15:15:12;;;;;;;3.75;3.35;;;30.40;99.60;;;;;;10019657;28;20018;-82
2023/09/07 15:20:03;;;;;;;7.68;3.50;;;30.50;99.50;;;;;;10017003;28;20038;-81
2023/09/07 15:24:55;;;;;;;4.78;3.22;;;30.70;99.40;;;;;;10018246;28;20054;-80
2023/09/07 15:29:48;;;;;;;4.35;3.67;;;30.80;99.30;;;;;;10017864;28;20099;-81
2023/09/07 15:34:39;;;;;;;6.70;3.90;;;31.00;99.20;;;;;;10017724;28;20018;-80
2023/09/07 15:39:31;;;;;;;4.25;3.38;;;31.10;99.10;;;;;;10017604;28;21901;-81
2023/09/07 15:44:22;;;;;;;7.13;3.85;;;31.20;99.00;;;;;;10020080;28;20055;-80
2023/09/07 15:49:13;;;;;;;5.35;3.22;;;31.40;99.00;;;;;;10017008;28;20057;-81
2023/09/07 15:54:04;;;;;;;5.18;3.80;;;31.50;98.70;;;;;;10016114;28;20040;-78
2023/09/07 15:58:55;;;;;;;3.90;3.25;;;31.70;98.60;;;;;;10011952;28;20026;-82
2023/09/07 16:03:46;;;;;;;4.88;3.40;;;31.70;98.30;;;;;;10014874;28;20176;-80
2023/09/07 16:08:37;;;;;;;3.75;3.40;;;31.90;98.30;;;;;;10016127;28;20113;-78
2023/09/07 16:13:28;;;;;;;7.72;3.35;;;32.00;98.20;;;;;;10017187;28;20061;-81
2023/09/07 16:18:19;;;;;;;3.65;2.90;;;32.40;97.90;;;;;;10015182;28;20600;-79
2023/09/07 16:23:10;;;;;;;5.20;3.67;;;32.80;97.60;;;;;;10016836;28;20072;-81
2023/09/07 16:28:01;;;;;;;4.53;3.70;;;32.70;97.50;;;;;;10016581;28;20033;-79
2023/09/07 16:32:54;;;;;;;6.45;3.25;;;32.60;97.60;;;;;;10016354;28;20081;-79
2023/09/07 16:37:45;;;;;;;5.50;4.50;;;32.50;97.70;;;;;;10017286;28;20234;-81
2023/09/07 16:42:36;;;;;;;7.20;4.07;;;32.50;97.70;;;;;;10024124;28;20068;-78
2023/09/07 16:47:27;;;;;;;6.10;3.92;;;32.50;97.70;;;;;;10029567;28;20069;-79
2023/09/07 16:52:20;;;;;;;6.45;4.18;;;32.30;97.70;;;;;;10040018;28;20018;-79
2023/09/07 16:57:11;;;;;;;6.55;3.75;;;32.40;97.80;;;;;;10026977;28;20423;-77
2023/09/07 17:02:02;;;;;;;6.43;3.80;;;32.30;97.70;;;;;;10023028;28;20042;-79
2023/09/07 17:06:52;;;;;;;6.03;3.65;;;32.40;97.70;;;;;;10023490;28;20022;-80
2023/09/07 17:11:43;;;;;;;5.55;4.07;;;32.30;98.00;;;;;;10022989;28;20065;-78
2023/09/07 17:16:34;;;;;;;4.90;3.72;;;32.00;97.80;;;;;;10022071;28;20062;-80
2023/09/07 17:21:24;;;;;;;5.85;3.63;;;31.60;98.00;;;;;;10022359;28;20089;-78
2023/09/07 17:26:15;;;;;;;5.88;3.83;;;31.40;98.20;;;;;;10022925;28;20025;-80
2023/09/07 17:31:19;;;;;;;5.78;3.97;;;31.10;98.20;;;;;;10022687;28;20123;-77
2023/09/07 17:36:20;;;;;;;9.82;4.72;;;31.00;98.30;;;;;;10022217;28;20029;-80
2023/09/07 17:41:11;;;;;;;8.63;4.97;;;31.00;98.30;;;;;;10022792;28;20556;-80
2023/09/07 17:46:02;;;;;;;5.18;3.45;;;30.90;98.30;;;;;;10021902;28;20515;-77
2023/09/07 17:50:55;;;;;;;7.00;4.03;;;30.80;98.50;;;;;;10020371;28;20038;-75
2023/09/07 17:55:46;;;;;;;7.38;3.85;;;30.70;98.80;;;;;;10023036;28;20538;-79
2023/09/07 18:00:37;;;;;;;5.78;4.28;;;30.70;98.60;;;;;;10021313;28;20034;-76
2023/09/07 18:05:28;;;;;;;11.60;5.82;;;30.70;98.60;;;;;;10036986;28;20046;-78
2023/09/07 18:10:19;;;;;;;6.07;4.45;;;30.70;98.60;;;;;;10017622;28;20041;-78
2023/09/07 18:15:13;;;;;;;9.85;7.22;;;30.70;98.50;;;;;;10021201;28;20093;-78
2023/09/07 18:20:03;;;;;;;;;;;30.70;98.50;;;;;;10019435;28;20049;-78
2023/09/07 18:24:54;;;;;;;10.40;6.00;;;30.70;98.50;;;;;;10007635;28;19924;-76
2023/09/07 18:29:48;;;;;;;10.57;6.30;;;30.70;98.60;;;;;;10009359;28;20041;-78
2023/09/07 18:34:39;;;;;;;10.13;6.10;;;30.50;98.70;;;;;;10022846;28;20040;-80
2023/09/07 18:39:29;;;;;;;11.38;4.95;;;30.50;98.70;;;;;;10019673;28;20034;-74
2023/09/07 18:44:20;;;;;;;7.75;4.95;;;30.50;98.60;;;;;;10020170;28;20117;-76
2023/09/07 18:49:14;;;;;;;11.77;6.75;;;30.40;98.70;;;;;;10019645;28;20034;-77
2023/09/07 18:54:05;;;;;;;13.32;7.22;;;30.40;98.60;;;;;;10020142;28;20112;-78
2023/09/07 18:58:56;;;;;;;9.90;6.35;;;30.30;98.60;;;;;;10018236;28;20026;-79
2023/09/07 19:03:51;;;;;;;8.18;5.35;;;30.30;98.60;;;;;;10031627;22;20104;-73
2023/09/07 19:08:43;;;;;;;9.60;4.72;;;30.30;98.70;;;;;;10013285;28;20033;-73
2023/09/07 19:13:34;;;;;;;8.77;5.53;;;30.10;98.70;;;;;;10007535;28;20489;-72
2023/09/07 19:18:25;;;;;;;8.20;5.75;;;30.10;98.80;;;;;;10005027;28;20181;-73
2023/09/07 19:23:15;;;;;;;9.07;5.45;;;30.10;98.80;;;;;;10027601;28;20229;-73
2023/09/07 19:28:06;;;;;;;7.50;5.40;;;30.10;98.60;;;;;;10038480;28;20268;-72
2023/09/07 19:32:57;;;;;;;8.60;5.35;;;30.10;98.60;;;;;;10025353;28;20468;-73
2023/09/07 19:37:48;;;;;;;7.40;5.05;;;29.90;98.80;;;;;;10029480;28;20034;-72
2023/09/07 19:42:38;;;;;;;9.05;5.68;;;29.90;98.80;;;;;;10021519;28;20061;-73
2023/09/07 19:47:29;;;;;;;9.63;5.85;;;29.80;98.80;;;;;;10019115;28;20030;-73
2023/09/07 19:52:19;;;;;;;10.63;5.40;;;29.70;98.90;;;;;;10022543;28;20026;-72
2023/09/07 19:57:10;;;;;;;8.50;5.35;;;29.70;98.90;;;;;;10027508;28;20017;-73
2023/09/07 20:02:01;;;;;;;9.52;6.03;;;29.60;98.90;;;;;;10022989;28;20092;-74
2023/09/07 20:06:52;;;;;;;7.22;5.03;;;29.60;98.90;;;;;;10011229;28;20032;-73
2023/09/07 20:11:44;;;;;;;7.43;5.18;;;29.60;98.80;;;;;;10021927;28;20079;-72
2023/09/07 20:16:35;;;;;;;6.57;4.80;;;29.40;99.00;;;;;;10018081;28;20411;-74
2023/09/07 20:21:26;;;;;;;6.95;5.18;;;29.40;99.00;;;;;;10020014;28;20056;-73
2023/09/07 20:26:20;;;;;;;8.23;5.43;;;29.20;99.00;;;;;;10017878;28;20459;-73
2023/09/07 20:31:10;;;;;;;7.60;5.30;;;29.30;99.00;;;;;;10029186;28;20026;-75
2023/09/07 20:36:01;;;;;;;7.65;5.40;;;29.30;99.00;;;;;;10038469;28;20435;-72
2023/09/07 20:40:52;;;;;;;8.73;4.95;;;29.20;99.10;;;;;;10037225;28;20022;-76
2023/09/07 20:45:43;;;;;;;6.68;4.93;;;29.20;99.10;;;;;;10027899;28;20026;-73
2023/09/07 20:50:34;;;;;;;8.02;4.97;;;29.10;99.00;;;;;;10030592;28;20141;-75
2023/09/07 20:55:24;;;;;;;8.38;5.30;;;28.90;99.10;;;;;;10033674;28;20023;-73
2023/09/07 21:00:15;;;;;;;6.28;5.07;;;29.00;99.00;;;;;;10033759;28;20037;-74
2023/09/07 21:05:07;;;;;;;7.60;5.70;;;29.00;99.00;;;;;;10036748;28;20042;-73
2023/09/07 21:09:58;;;;;;;4.97;4.47;;;28.90;99.10;;;;;;10036931;28;20062;-73
2023/09/07 21:14:49;;;;;;;7.13;4.88;;;28.70;99.30;;;;;;10029848;28;20073;-74
2023/09/07 21:19:39;;;;;;;9.90;5.95;;;28.60;99.40;;;;;;10022492;28;20026;-71
2023/09/07 21:24:30;;;;;;;8.95;6.25;;;28.60;99.40;;;;;;10009259;28;20404;-71
2023/09/07 21:29:21;;;;;;;9.20;5.40;;;28.70;99.20;;;;;;10039207;28;20067;-74
2023/09/07 21:34:11;;;;;;;8.15;4.78;;;28.50;99.40;;;;;;10050993;28;20029;-73
2023/09/07 21:39:02;;;;;;;6.68;4.53;;;28.40;99.50;;;;;;10047817;28;20489;-71
2023/09/07 21:43:57;;;;;;;5.32;4.13;;;28.40;99.60;;;;;;10025892;28;20438;-71
2023/09/07 21:48:47;;;;;;;;;;;28.20;99.90;;;;;;10035146;28;20042;-74
2023/09/07 21:53:39;;;;;;;9.45;5.95;;;28.20;99.60;;;;;;10031910;28;20037;-74
2023/09/07 21:58:30;;;;;;;10.68;7.38;;;28.20;99.60;;;;;;10047399;28;20649;-72
2023/09/07 22:03:20;;;;;;;7.60;5.30;;;28.20;99.60;;;;;;10039204;28;21037;-73
2023/09/07 22:08:11;;;;;;;8.30;5.07;;;28.10;99.60;;;;;;10035775;28;20049;-74
2023/09/07 22:13:02;;;;;;;7.93;5.07;;;28.10;99.70;;;;;;10037856;28;20109;-73
2023/09/07 22:17:53;;;;;;;5.82;4.28;;;28.10;99.60;;;;;;10032124;28;20038;-73
2023/09/07 22:22:43;;;;;;;13.70;8.65;;;27.90;99.80;;;;;;10017970;28;20037;-74
2023/09/07 22:27:34;;;;;;;7.80;5.65;;;27.90;99.80;;;;;;10025823;28;20052;-74
2023/09/07 22:32:25;;;;;;;9.40;5.47;;;27.90;99.80;;;;;;10050192;28;20040;-73
2023/09/07 22:37:16;;;;;;;7.88;4.65;;;27.80;99.90;;;;;;10042725;28;20034;-72
2023/09/07 22:42:07;;;;;;;7.93;4.63;;;27.80;99.80;;;;;;10041369;28;20026;-74
2023/09/07 22:46:57;;;;;;;6.13;4.78;;;27.70;99.80;;;;;;10037337;28;20120;-73
2023/09/07 22:51:48;;;;;;;7.72;4.95;;;27.50;99.90;;;;;;10027544;28;20034;-74
2023/09/07 22:56:39;;;;;;;7.13;5.43;;;27.40;99.90;;;;;;10038229;28;20025;-72
2023/09/07 23:01:29;;;;;;;9.80;4.82;;;27.30;99.90;;;;;;10044368;28;20053;-71
2023/09/07 23:06:20;;;;;;;9.52;4.20;;;27.30;99.90;;;;;;10044315;28;20030;-71
2023/09/07 23:11:13;;;;;;;6.90;4.63;;;27.20;99.90;;;;;;10035068;28;20037;-72
2023/09/07 23:16:07;;;;;;;9.13;4.30;;;27.10;99.90;;;;;;10033864;28;20473;-72
2023/09/07 23:20:57;;;;;;;6.13;3.83;;;27.10;99.90;;;;;;10026005;28;20496;-71
2023/09/07 23:25:48;;;;;;;6.40;4.22;;;27.10;99.90;;;;;;10017128;28;20029;-73
2023/09/07 23:30:39;;;;;;;5.78;3.85;;;27.10;99.90;;;;;;10048445;28;20045;-73
2023/09/07 23:35:31;;;;;;;6.18;4.28;;;27.00;99.90;;;;;;10043244;28;20052;-71
2023/09/07 23:40:21;;;;;;;7.68;4.78;;;26.80;99.90;;;;;;10043057;28;20025;-73
2023/09/07 23:45:12;;;;;;;6.70;4.38;;;26.80;99.90;;;;;;10037680;28;20033;-74
2023/09/07 23:50:06;;;;;;;9.55;5.25;;;26.70;99.90;;;;;;10031816;28;20034;-73
2023/09/07 23:54:57;;;;;;;7.45;4.25;;;26.70;99.90;;;;;;10029925;28;20048;-73
2023/09/07 23:59:50;;;;;;;8.68;4.90;;;26.60;99.90;;;;;;10041994;28;20045;-72
